sensor_id;sensor_type;location;lat;lon;timestamp;temperature;humidity
41256;DHT22;26989;45.524;10.938;2023-02-15T07:12:49;5.60;98.20
41256;DHT22;26989;45.524;10.938;2023-02-15T07:15:17;5.70;98.00
41256;DHT22;26989;45.524;10.938;2023-02-15T07:17:47;5.80;97.90
41256;DHT22;26989;45.524;10.938;2023-02-15T07:20:20;6.00;97.70
41256;DHT22;26989;45.524;10.938;2023-02-15T07:22:48;6.10;97.80
41256;DHT22;26989;45.524;10.938;2023-02-15T07:25:15;6.00;98.10
41256;DHT22;26989;45.524;10.938;2023-02-15T07:27:42;6.10;98.40
41256;DHT22;26989;45.524;10.938;2023-02-15T07:30:14;6.10;98.50
41256;DHT22;26989;45.524;10.938;2023-02-15T07:32:42;6.30;98.30
41256;DHT22;26989;45.524;10.938;2023-02-15T07:35:31;6.50;98.20
41256;DHT22;26989;45.524;10.938;2023-02-15T07:37:58;6.60;98.10
41256;DHT22;26989;45.524;10.938;2023-02-15T07:40:25;6.70;97.90
41256;DHT22;26989;45.524;10.938;2023-02-15T07:42:52;6.80;97.80
41256;DHT22;26989;45.524;10.938;2023-02-15T07:45:22;7.00;97.80
41256;DHT22;26989;45.524;10.938;2023-02-15T07:47:49;7.20;97.50
41256;DHT22;26989;45.524;10.938;2023-02-15T07:50:15;7.30;97.30
41256;DHT22;26989;45.524;10.938;2023-02-15T07:52:42;7.40;97.50
41256;DHT22;26989;45.524;10.938;2023-02-15T07:55:09;7.40;98.00
41256;DHT22;26989;45.524;10.938;2023-02-15T07:57:46;7.50;98.50
41256;DHT22;26989;45.524;10.938;2023-02-15T08:00:15;7.60;98.60
41256;DHT22;26989;45.524;10.938;2023-02-15T08:02:49;7.80;98.30
41256;DHT22;26989;45.524;10.938;2023-02-15T08:05:36;7.80;98.30
41256;DHT22;26989;45.524;10.938;2023-02-15T08:08:03;8.10;98.00
41256;DHT22;26989;45.524;10.938;2023-02-15T08:10:30;8.40;97.00
41256;DHT22;26989;45.524;10.938;2023-02-15T08:13:23;8.60;96.80
41256;DHT22;26989;45.524;10.938;2023-02-15T08:15:50;8.70;96.80
41256;DHT22;26989;45.524;10.938;2023-02-15T08:18:18;8.90;97.50
41256;DHT22;26989;45.524;10.938;2023-02-15T08:20:49;8.90;97.90
41256;DHT22;26989;45.524;10.938;2023-02-15T08:23:16;8.90;98.40
41256;DHT22;26989;45.524;10.938;2023-02-15T08:25:43;9.00;98.70
41256;DHT22;26989;45.524;10.938;2023-02-15T08:28:10;9.10;98.60
41256;DHT22;26989;45.524;10.938;2023-02-15T08:30:37;9.30;98.40
41256;DHT22;26989;45.524;10.938;2023-02-15T08:33:04;9.40;98.20
41256;DHT22;26989;45.524;10.938;2023-02-15T08:35:31;9.50;98.00
41256;DHT22;26989;45.524;10.938;2023-02-15T08:37:58;9.50;97.80
41256;DHT22;26989;45.524;10.938;2023-02-15T08:40:25;9.60;97.80
41256;DHT22;26989;45.524;10.938;2023-02-15T08:42:51;9.70;98.10
41256;DHT22;26989;45.524;10.938;2023-02-15T08:45:18;9.70;98.10
41256;DHT22;26989;45.524;10.938;2023-02-15T08:47:45;9.60;98.10
41256;DHT22;26989;45.524;10.938;2023-02-15T08:50:12;9.40;98.30
41256;DHT22;26989;45.524;10.938;2023-02-15T08:52:39;9.30;98.50
41256;DHT22;26989;45.524;10.938;2023-02-15T08:55:06;9.40;98.70
41256;DHT22;26989;45.524;10.938;2023-02-15T08:57:32;9.20;98.90
41256;DHT22;26989;45.524;10.938;2023-02-15T08:59:59;9.20;99.60
41256;DHT22;26989;45.524;10.938;2023-02-15T09:02:26;9.20;99.90
41256;DHT22;26989;45.524;10.938;2023-02-15T09:04:53;9.10;99.90
41256;DHT22;26989;45.524;10.938;2023-02-15T09:07:20;9.10;99.90
41256;DHT22;26989;45.524;10.938;2023-02-15T09:09:47;9.10;99.90
41256;DHT22;26989;45.524;10.938;2023-02-15T09:12:13;9.10;99.90
41256;DHT22;26989;45.524;10.938;2023-02-15T09:14:40;9.10;99.90
41256;DHT22;26989;45.524;10.938;2023-02-15T09:17:07;9.00;99.90
41256;DHT22;26989;45.524;10.938;2023-02-15T09:19:34;9.10;99.90
41256;DHT22;26989;45.524;10.938;2023-02-15T09:22:01;9.10;99.90
41256;DHT22;26989;45.524;10.938;2023-02-15T09:24:32;9.10;99.70
41256;DHT22;26989;45.524;10.938;2023-02-15T09:27:00;9.10;99.60
41256;DHT22;26989;45.524;10.938;2023-02-15T09:29:27;9.20;99.70
41256;DHT22;26989;45.524;10.938;2023-02-15T09:31:53;9.20;99.50
41256;DHT22;26989;45.524;10.938;2023-02-15T09:34:22;9.30;99.60
41256;DHT22;26989;45.524;10.938;2023-02-15T09:36:49;9.30;99.70
41256;DHT22;26989;45.524;10.938;2023-02-15T09:39:20;9.40;99.50
41256;DHT22;26989;45.524;10.938;2023-02-15T09:44:43;9.70;99.00
41256;DHT22;26989;45.524;10.938;2023-02-15T09:52:48;10.00;98.60
41256;DHT22;26989;45.524;10.938;2023-02-15T10:17:33;10.60;97.10
41256;DHT22;26989;45.524;10.938;2023-02-15T10:20:25;10.80;97.10
41256;DHT22;26989;45.524;10.938;2023-02-15T10:26:20;10.70;96.60
41256;DHT22;26989;45.524;10.938;2023-02-15T10:28:55;10.80;96.40
41256;DHT22;26989;45.524;10.938;2023-02-15T10:31:27;10.80;96.30
41256;DHT22;26989;45.524;10.938;2023-02-15T10:34:20;10.80;96.10
41256;DHT22;26989;45.524;10.938;2023-02-15T10:36:56;10.90;96.00
41256;DHT22;26989;45.524;10.938;2023-02-15T10:50:40;11.20;96.30
41256;DHT22;26989;45.524;10.938;2023-02-15T11:01:32;11.60;95.20
41256;DHT22;26989;45.524;10.938;2023-02-15T11:06:53;11.50;95.00
41256;DHT22;26989;45.524;10.938;2023-02-15T11:09:22;11.60;94.60
41256;DHT22;26989;45.524;10.938;2023-02-15T11:11:55;11.60;94.90
41256;DHT22;26989;45.524;10.938;2023-02-15T11:17:15;11.60;94.60
41256;DHT22;26989;45.524;10.938;2023-02-15T11:22:33;11.70;94.00
41256;DHT22;26989;45.524;10.938;2023-02-15T11:25:01;11.80;93.50
41256;DHT22;26989;45.524;10.938;2023-02-15T11:27:31;11.80;93.00
41256;DHT22;26989;45.524;10.938;2023-02-15T11:30:05;11.80;92.70
41256;DHT22;26989;45.524;10.938;2023-02-15T11:32:39;12.00;92.30
41256;DHT22;26989;45.524;10.938;2023-02-15T11:38:11;12.20;91.80
41256;DHT22;26989;45.524;10.938;2023-02-15T11:40:56;12.10;91.70
41256;DHT22;26989;45.524;10.938;2023-02-15T11:43:50;12.10;91.60
41256;DHT22;26989;45.524;10.938;2023-02-15T11:46:20;12.20;91.50
41256;DHT22;26989;45.524;10.938;2023-02-15T11:48:49;12.20;91.30
41256;DHT22;26989;45.524;10.938;2023-02-15T11:51:21;12.20;90.80
41256;DHT22;26989;45.524;10.938;2023-02-15T11:53:50;12.40;90.70
41256;DHT22;26989;45.524;10.938;2023-02-15T11:56:20;12.30;90.90
41256;DHT22;26989;45.524;10.938;2023-02-15T11:58:51;12.50;90.20
41256;DHT22;26989;45.524;10.938;2023-02-15T12:04:16;12.80;89.40
41256;DHT22;26989;45.524;10.938;2023-02-15T12:06:59;12.70;89.80
41256;DHT22;26989;45.524;10.938;2023-02-15T12:09:38;12.80;90.10
41256;DHT22;26989;45.524;10.938;2023-02-15T12:14:49;12.90;90.20
41256;DHT22;26989;45.524;10.938;2023-02-15T12:17:17;12.80;90.20
41256;DHT22;26989;45.524;10.938;2023-02-15T12:19:44;12.80;90.30
41256;DHT22;26989;45.524;10.938;2023-02-15T12:22:27;13.10;90.30
41256;DHT22;26989;45.524;10.938;2023-02-15T12:25:00;13.30;89.60
41256;DHT22;26989;45.524;10.938;2023-02-15T12:27:30;13.20;89.40
41256;DHT22;26989;45.524;10.938;2023-02-15T12:30:20;13.20;89.90
41256;DHT22;26989;45.524;10.938;2023-02-15T12:32:52;13.10;89.40
41256;DHT22;26989;45.524;10.938;2023-02-15T12:35:29;13.40;88.50
41256;DHT22;26989;45.524;10.938;2023-02-15T12:38:09;13.50;87.90
41256;DHT22;26989;45.524;10.938;2023-02-15T12:40:58;13.70;86.90
41256;DHT22;26989;45.524;10.938;2023-02-15T12:43:34;13.90;86.70
41256;DHT22;26989;45.524;10.938;2023-02-15T12:46:25;13.70;87.50
41256;DHT22;26989;45.524;10.938;2023-02-15T12:49:22;13.70;87.50
41256;DHT22;26989;45.524;10.938;2023-02-15T12:51:56;13.60;87.60
41256;DHT22;26989;45.524;10.938;2023-02-15T12:54:41;13.70;88.00
41256;DHT22;26989;45.524;10.938;2023-02-15T12:57:30;14.00;87.00
41256;DHT22;26989;45.524;10.938;2023-02-15T12:59:58;14.10;87.10
41256;DHT22;26989;45.524;10.938;2023-02-15T13:07:45;14.10;87.10
41256;DHT22;26989;45.524;10.938;2023-02-15T13:10:28;14.20;85.40
41256;DHT22;26989;45.524;10.938;2023-02-15T13:12:56;14.40;86.30
41256;DHT22;26989;45.524;10.938;2023-02-15T13:15:34;14.30;86.50
41256;DHT22;26989;45.524;10.938;2023-02-15T13:18:03;14.40;87.10
41256;DHT22;26989;45.524;10.938;2023-02-15T13:20:32;14.60;86.30
41256;DHT22;26989;45.524;10.938;2023-02-15T13:23:10;14.60;86.00
41256;DHT22;26989;45.524;10.938;2023-02-15T13:25:45;14.70;85.50
41256;DHT22;26989;45.524;10.938;2023-02-15T13:28:18;14.70;85.80
41256;DHT22;26989;45.524;10.938;2023-02-15T13:30:48;14.60;86.40
41256;DHT22;26989;45.524;10.938;2023-02-15T13:33:36;14.50;86.60
41256;DHT22;26989;45.524;10.938;2023-02-15T13:36:11;14.80;85.70
41256;DHT22;26989;45.524;10.938;2023-02-15T13:42:05;14.80;86.40
41256;DHT22;26989;45.524;10.938;2023-02-15T13:55:52;14.90;85.90
41256;DHT22;26989;45.524;10.938;2023-02-15T14:25:42;15.00;84.70
41256;DHT22;26989;45.524;10.938;2023-02-15T14:28:16;15.00;84.60
41256;DHT22;26989;45.524;10.938;2023-02-15T14:30:49;15.00;84.50
41256;DHT22;26989;45.524;10.938;2023-02-15T14:36:04;15.20;83.20
41256;DHT22;26989;45.524;10.938;2023-02-15T14:38:37;15.20;83.10
41256;DHT22;26989;45.524;10.938;2023-02-15T14:41:20;15.10;83.20
41256;DHT22;26989;45.524;10.938;2023-02-15T14:43:59;15.10;82.50
41256;DHT22;26989;45.524;10.938;2023-02-15T14:46:48;15.10;82.10
41256;DHT22;26989;45.524;10.938;2023-02-15T14:49:21;15.10;82.00
41256;DHT22;26989;45.524;10.938;2023-02-15T14:56:44;15.00;80.70
41256;DHT22;26989;45.524;10.938;2023-02-15T14:59:15;15.00;80.70
41256;DHT22;26989;45.524;10.938;2023-02-15T15:02:39;15.00;80.40
41256;DHT22;26989;45.524;10.938;2023-02-15T15:04:41;15.00;80.60
41256;DHT22;26989;45.524;10.938;2023-02-15T15:09:40;14.90;80.70
41256;DHT22;26989;45.524;10.938;2023-02-15T15:14:48;14.80;80.80
41256;DHT22;26989;45.524;10.938;2023-02-15T15:20:12;14.70;81.10
41256;DHT22;26989;45.524;10.938;2023-02-15T15:22:44;14.70;80.90
41256;DHT22;26989;45.524;10.938;2023-02-15T15:28:02;14.50;81.10
41256;DHT22;26989;45.524;10.938;2023-02-15T15:33:19;14.80;81.90
41256;DHT22;26989;45.524;10.938;2023-02-15T15:49:56;14.20;84.30
41256;DHT22;26989;45.524;10.938;2023-02-15T15:52:24;14.20;85.20
41256;DHT22;26989;45.524;10.938;2023-02-15T15:55:02;14.10;85.60
41256;DHT22;26989;45.524;10.938;2023-02-15T15:57:34;14.10;85.70
41256;DHT22;26989;45.524;10.938;2023-02-15T16:00:03;13.90;85.90
41256;DHT22;26989;45.524;10.938;2023-02-15T16:02:30;13.90;86.40
41256;DHT22;26989;45.524;10.938;2023-02-15T16:05:07;13.70;87.00
41256;DHT22;26989;45.524;10.938;2023-02-15T16:07:34;13.50;88.00
41256;DHT22;26989;45.524;10.938;2023-02-15T16:10:07;13.30;89.00
41256;DHT22;26989;45.524;10.938;2023-02-15T16:12:37;13.10;89.60
41256;DHT22;26989;45.524;10.938;2023-02-15T16:17:45;12.70;90.80
41256;DHT22;26989;45.524;10.938;2023-02-15T16:20:18;12.50;91.00
41256;DHT22;26989;45.524;10.938;2023-02-15T16:22:48;12.20;91.30
41256;DHT22;26989;45.524;10.938;2023-02-15T16:25:19;11.90;91.70
41256;DHT22;26989;45.524;10.938;2023-02-15T16:27:49;11.70;92.20
41256;DHT22;26989;45.524;10.938;2023-02-15T16:30:30;11.60;92.60
41256;DHT22;26989;45.524;10.938;2023-02-15T16:33:10;11.40;92.70
41256;DHT22;26989;45.524;10.938;2023-02-15T16:35:40;11.10;93.20
41256;DHT22;26989;45.524;10.938;2023-02-15T16:38:10;11.10;93.30
41256;DHT22;26989;45.524;10.938;2023-02-15T16:40:41;11.20;93.70
41256;DHT22;26989;45.524;10.938;2023-02-15T16:43:20;11.50;93.50
41256;DHT22;26989;45.524;10.938;2023-02-15T16:45:47;11.50;93.10
41256;DHT22;26989;45.524;10.938;2023-02-15T16:48:23;11.30;93.50
41256;DHT22;26989;45.524;10.938;2023-02-15T16:50:55;11.30;93.70
41256;DHT22;26989;45.524;10.938;2023-02-15T16:53:28;11.10;93.40
41256;DHT22;26989;45.524;10.938;2023-02-15T16:56:01;11.10;93.10
41256;DHT22;26989;45.524;10.938;2023-02-15T16:58:43;10.90;93.20
41256;DHT22;26989;45.524;10.938;2023-02-15T17:01:13;10.80;93.30
41256;DHT22;26989;45.524;10.938;2023-02-15T17:03:41;10.80;93.40
41256;DHT22;26989;45.524;10.938;2023-02-15T17:06:38;10.70;93.40
41256;DHT22;26989;45.524;10.938;2023-02-15T17:09:16;10.50;93.60
41256;DHT22;26989;45.524;10.938;2023-02-15T17:11:47;10.40;93.60
41256;DHT22;26989;45.524;10.938;2023-02-15T17:14:19;10.30;93.70
41256;DHT22;26989;45.524;10.938;2023-02-15T17:16:52;10.20;93.80
41256;DHT22;26989;45.524;10.938;2023-02-15T17:21:52;10.10;93.90
41256;DHT22;26989;45.524;10.938;2023-02-15T17:24:41;9.90;94.00
41256;DHT22;26989;45.524;10.938;2023-02-15T17:27:20;10.00;94.00
41256;DHT22;26989;45.524;10.938;2023-02-15T17:29:51;9.80;94.10
41256;DHT22;26989;45.524;10.938;2023-02-15T17:32:22;9.70;94.20
41256;DHT22;26989;45.524;10.938;2023-02-15T17:42:41;9.50;94.30
41256;DHT22;26989;45.524;10.938;2023-02-15T17:45:14;9.50;94.30
41256;DHT22;26989;45.524;10.938;2023-02-15T17:47:45;9.50;94.30
41256;DHT22;26989;45.524;10.938;2023-02-15T17:50:22;9.40;94.40
41256;DHT22;26989;45.524;10.938;2023-02-15T17:52:52;9.40;94.50
41256;DHT22;26989;45.524;10.938;2023-02-15T17:55:24;9.40;94.60
41256;DHT22;26989;45.524;10.938;2023-02-15T18:00:42;9.20;94.80
41256;DHT22;26989;45.524;10.938;2023-02-15T18:03:49;9.10;95.00
41256;DHT22;26989;45.524;10.938;2023-02-15T18:06:37;9.10;95.10
41256;DHT22;26989;45.524;10.938;2023-02-15T18:09:24;9.00;95.20
41256;DHT22;26989;45.524;10.938;2023-02-15T18:12:23;9.00;95.30
41256;DHT22;26989;45.524;10.938;2023-02-15T18:14:51;8.90;95.40
41256;DHT22;26989;45.524;10.938;2023-02-15T18:17:32;8.90;95.40
41256;DHT22;26989;45.524;10.938;2023-02-15T18:20:02;8.80;95.60
41256;DHT22;26989;45.524;10.938;2023-02-15T18:22:33;8.90;95.60
41256;DHT22;26989;45.524;10.938;2023-02-15T18:24:59;8.80;95.60
41256;DHT22;26989;45.524;10.938;2023-02-15T18:27:26;8.80;95.80
41256;DHT22;26989;45.524;10.938;2023-02-15T18:29:53;8.80;95.70
41256;DHT22;26989;45.524;10.938;2023-02-15T18:32:31;8.70;95.80
41256;DHT22;26989;45.524;10.938;2023-02-15T18:34:59;8.70;95.80
41256;DHT22;26989;45.524;10.938;2023-02-15T18:37:29;8.70;95.90
41256;DHT22;26989;45.524;10.938;2023-02-15T18:40:01;8.70;95.90
41256;DHT22;26989;45.524;10.938;2023-02-15T18:42:32;8.90;95.80
41256;DHT22;26989;45.524;10.938;2023-02-15T18:45:23;9.00;95.70
41256;DHT22;26989;45.524;10.938;2023-02-15T18:47:51;8.90;95.80
41256;DHT22;26989;45.524;10.938;2023-02-15T18:50:19;8.70;96.00
41256;DHT22;26989;45.524;10.938;2023-02-15T18:52:48;8.60;96.20
41256;DHT22;26989;45.524;10.938;2023-02-15T18:55:23;8.60;96.30
41256;DHT22;26989;45.524;10.938;2023-02-15T18:57:53;8.60;96.30
41256;DHT22;26989;45.524;10.938;2023-02-15T19:00:26;8.60;96.40
41256;DHT22;26989;45.524;10.938;2023-02-15T19:02:58;8.60;96.40
41256;DHT22;26989;45.524;10.938;2023-02-15T19:05:27;8.50;96.50
41256;DHT22;26989;45.524;10.938;2023-02-15T19:07:56;8.50;96.60
41256;DHT22;26989;45.524;10.938;2023-02-15T19:10:26;8.60;96.40
41256;DHT22;26989;45.524;10.938;2023-02-15T19:12:54;8.60;96.50
41256;DHT22;26989;45.524;10.938;2023-02-15T19:15:28;8.50;96.70
41256;DHT22;26989;45.524;10.938;2023-02-15T19:17:56;8.50;96.80
41256;DHT22;26989;45.524;10.938;2023-02-15T19:20:38;8.70;96.70
41256;DHT22;26989;45.524;10.938;2023-02-15T19:23:16;8.70;96.70
41256;DHT22;26989;45.524;10.938;2023-02-15T19:25:45;8.70;96.70
41256;DHT22;26989;45.524;10.938;2023-02-15T19:28:28;8.50;97.00
41256;DHT22;26989;45.524;10.938;2023-02-15T19:30:55;8.40;97.10
41256;DHT22;26989;45.524;10.938;2023-02-15T19:33:22;8.40;97.00
41256;DHT22;26989;45.524;10.938;2023-02-15T19:35:51;8.50;96.90
41256;DHT22;26989;45.524;10.938;2023-02-15T19:38:30;8.50;96.80
41256;DHT22;26989;45.524;10.938;2023-02-15T19:41:05;8.40;97.00
41256;DHT22;26989;45.524;10.938;2023-02-15T19:43:33;8.30;97.20
41256;DHT22;26989;45.524;10.938;2023-02-15T19:46:00;8.30;97.20
41256;DHT22;26989;45.524;10.938;2023-02-15T19:48:27;8.20;97.30
41256;DHT22;26989;45.524;10.938;2023-02-15T19:50:54;8.30;97.30
41256;DHT22;26989;45.524;10.938;2023-02-15T19:53:24;8.40;97.20
41256;DHT22;26989;45.524;10.938;2023-02-15T19:55:52;8.20;97.20
41256;DHT22;26989;45.524;10.938;2023-02-15T19:58:19;8.10;97.30
41256;DHT22;26989;45.524;10.938;2023-02-15T20:00:48;8.10;97.30
41256;DHT22;26989;45.524;10.938;2023-02-15T20:03:16;8.10;97.30
41256;DHT22;26989;45.524;10.938;2023-02-15T20:05:43;8.20;97.10
41256;DHT22;26989;45.524;10.938;2023-02-15T20:08:20;8.10;97.10
41256;DHT22;26989;45.524;10.938;2023-02-15T20:10:48;8.00;97.20
41256;DHT22;26989;45.524;10.938;2023-02-15T20:13:16;8.10;97.30
41256;DHT22;26989;45.524;10.938;2023-02-15T20:15:44;8.00;97.30
41256;DHT22;26989;45.524;10.938;2023-02-15T20:18:11;7.90;97.30
41256;DHT22;26989;45.524;10.938;2023-02-15T20:20:47;8.00;97.40
41256;DHT22;26989;45.524;10.938;2023-02-15T20:23:32;8.00;97.30
41256;DHT22;26989;45.524;10.938;2023-02-15T20:26:08;8.20;97.20
41256;DHT22;26989;45.524;10.938;2023-02-15T20:28:36;8.10;97.00
41256;DHT22;26989;45.524;10.938;2023-02-15T20:31:03;8.10;97.00
41256;DHT22;26989;45.524;10.938;2023-02-15T20:33:31;8.00;97.10
41256;DHT22;26989;45.524;10.938;2023-02-15T20:35:58;7.90;97.20
41256;DHT22;26989;45.524;10.938;2023-02-15T20:38:27;7.90;97.40
41256;DHT22;26989;45.524;10.938;2023-02-15T20:40:55;7.80;97.40
41256;DHT22;26989;45.524;10.938;2023-02-15T20:43:42;7.70;97.60
41256;DHT22;26989;45.524;10.938;2023-02-15T20:46:09;7.60;97.60
41256;DHT22;26989;45.524;10.938;2023-02-15T20:48:35;7.70;97.70
41256;DHT22;26989;45.524;10.938;2023-02-15T20:51:02;7.70;97.70
41256;DHT22;26989;45.524;10.938;2023-02-15T20:53:30;7.70;97.60
41256;DHT22;26989;45.524;10.938;2023-02-15T20:55:57;7.80;97.40
41256;DHT22;26989;45.524;10.938;2023-02-15T20:58:26;7.80;97.30
41256;DHT22;26989;45.524;10.938;2023-02-15T21:00:57;7.80;97.30
41256;DHT22;26989;45.524;10.938;2023-02-15T21:03:26;7.60;97.50
41256;DHT22;26989;45.524;10.938;2023-02-15T21:05:57;7.60;97.80
41256;DHT22;26989;45.524;10.938;2023-02-15T21:08:24;7.50;97.60
41256;DHT22;26989;45.524;10.938;2023-02-15T21:10:52;7.70;97.50
41256;DHT22;26989;45.524;10.938;2023-02-15T21:13:31;7.70;97.40
41256;DHT22;26989;45.524;10.938;2023-02-15T21:15:59;7.70;97.40
41256;DHT22;26989;45.524;10.938;2023-02-15T21:18:31;7.60;97.50
41256;DHT22;26989;45.524;10.938;2023-02-15T21:21:02;7.90;97.20
41256;DHT22;26989;45.524;10.938;2023-02-15T21:23:41;8.00;97.00
41256;DHT22;26989;45.524;10.938;2023-02-15T21:26:16;8.10;96.80
41256;DHT22;26989;45.524;10.938;2023-02-15T21:28:46;8.20;96.50
41256;DHT22;26989;45.524;10.938;2023-02-15T21:31:19;8.10;96.40
41256;DHT22;26989;45.524;10.938;2023-02-15T21:33:46;8.00;96.60
41256;DHT22;26989;45.524;10.938;2023-02-15T21:36:15;7.90;96.50
41256;DHT22;26989;45.524;10.938;2023-02-15T21:38:44;7.90;96.50
41256;DHT22;26989;45.524;10.938;2023-02-15T21:41:15;7.90;96.40
41256;DHT22;26989;45.524;10.938;2023-02-15T21:44:01;7.90;96.20
41256;DHT22;26989;45.524;10.938;2023-02-15T21:46:47;7.90;96.00
41256;DHT22;26989;45.524;10.938;2023-02-15T21:49:32;8.00;95.60
41256;DHT22;26989;45.524;10.938;2023-02-15T21:51:59;8.00;95.30
41256;DHT22;26989;45.524;10.938;2023-02-15T21:54:39;8.00;95.20
41256;DHT22;26989;45.524;10.938;2023-02-15T21:57:12;7.80;95.20
41256;DHT22;26989;45.524;10.938;2023-02-15T21:59:40;7.80;95.30
41256;DHT22;26989;45.524;10.938;2023-02-15T22:02:28;7.70;95.30
41256;DHT22;26989;45.524;10.938;2023-02-15T22:04:56;7.70;95.50
41256;DHT22;26989;45.524;10.938;2023-02-15T22:07:23;7.70;95.30
41256;DHT22;26989;45.524;10.938;2023-02-15T22:09:50;7.70;95.00
41256;DHT22;26989;45.524;10.938;2023-02-15T22:12:18;7.90;94.40
41256;DHT22;26989;45.524;10.938;2023-02-15T22:14:49;7.90;94.20
41256;DHT22;26989;45.524;10.938;2023-02-15T22:17:19;7.90;93.90
41256;DHT22;26989;45.524;10.938;2023-02-15T22:19:48;7.70;93.90
41256;DHT22;26989;45.524;10.938;2023-02-15T22:22:15;7.60;93.90
41256;DHT22;26989;45.524;10.938;2023-02-15T22:24:43;7.60;93.60
41256;DHT22;26989;45.524;10.938;2023-02-15T22:27:20;7.70;93.50
41256;DHT22;26989;45.524;10.938;2023-02-15T22:29:48;7.60;93.50
41256;DHT22;26989;45.524;10.938;2023-02-15T22:32:24;7.60;93.40
41256;DHT22;26989;45.524;10.938;2023-02-15T22:34:52;7.50;93.40
41256;DHT22;26989;45.524;10.938;2023-02-15T22:37:19;7.50;93.40
41256;DHT22;26989;45.524;10.938;2023-02-15T22:39:46;7.40;93.50
41256;DHT22;26989;45.524;10.938;2023-02-15T22:42:23;7.40;93.40
41256;DHT22;26989;45.524;10.938;2023-02-15T22:44:54;7.30;93.40
41256;DHT22;26989;45.524;10.938;2023-02-15T22:47:23;7.30;93.30
41256;DHT22;26989;45.524;10.938;2023-02-15T22:49:51;7.30;93.30
41256;DHT22;26989;45.524;10.938;2023-02-15T22:52:20;7.20;93.30
41256;DHT22;26989;45.524;10.938;2023-02-15T22:54:47;7.20;93.20
41256;DHT22;26989;45.524;10.938;2023-02-15T22:57:34;7.20;93.20
41256;DHT22;26989;45.524;10.938;2023-02-15T23:00:01;7.30;93.10
41256;DHT22;26989;45.524;10.938;2023-02-15T23:02:28;7.20;93.10
41256;DHT22;26989;45.524;10.938;2023-02-15T23:04:55;7.20;93.20
41256;DHT22;26989;45.524;10.938;2023-02-15T23:07:21;7.20;93.10
41256;DHT22;26989;45.524;10.938;2023-02-15T23:09:49;7.20;93.00
41256;DHT22;26989;45.524;10.938;2023-02-15T23:12:30;7.20;92.90
41256;DHT22;26989;45.524;10.938;2023-02-15T23:15:26;7.20;92.90
41256;DHT22;26989;45.524;10.938;2023-02-15T23:17:53;7.30;92.80
41256;DHT22;26989;45.524;10.938;2023-02-15T23:20:20;7.20;92.90
41256;DHT22;26989;45.524;10.938;2023-02-15T23:22:46;7.20;93.00
41256;DHT22;26989;45.524;10.938;2023-02-15T23:25:13;7.10;93.20
41256;DHT22;26989;45.524;10.938;2023-02-15T23:27:40;7.10;93.50
41256;DHT22;26989;45.524;10.938;2023-02-15T23:30:22;7.00;93.90
41256;DHT22;26989;45.524;10.938;2023-02-15T23:32:52;6.90;94.00
41256;DHT22;26989;45.524;10.938;2023-02-15T23:35:20;6.90;93.70
41256;DHT22;26989;45.524;10.938;2023-02-15T23:37:47;6.90;93.60
41256;DHT22;26989;45.524;10.938;2023-02-15T23:40:15;7.00;93.40
41256;DHT22;26989;45.524;10.938;2023-02-15T23:43:02;7.00;93.40
41256;DHT22;26989;45.524;10.938;2023-02-15T23:45:34;7.00;93.40
41256;DHT22;26989;45.524;10.938;2023-02-15T23:48:02;7.00;93.30
41256;DHT22;26989;45.524;10.938;2023-02-15T23:50:48;7.00;93.50
41256;DHT22;26989;45.524;10.938;2023-02-15T23:53:15;7.00;93.40
41256;DHT22;26989;45.524;10.938;2023-02-15T23:55:43;7.00;93.40
41256;DHT22;26989;45.524;10.938;2023-02-15T23:58:21;7.10;93.30
